sensor_id;sensor_type;location;lat;lon;timestamp;P1;durP1;ratioP1;P2;durP2;ratioP2
38113;SDS011;23926;53.222;6.354;2023-02-28T00:00:06;10.68;;;4.07;;
38113;SDS011;23926;53.222;6.354;2023-02-28T00:02:42;9.40;;;3.85;;
38113;SDS011;23926;53.222;6.354;2023-02-28T00:05:09;12.60;;;3.75;;
38113;SDS011;23926;53.222;6.354;2023-02-28T00:07:37;10.93;;;3.97;;
38113;SDS011;23926;53.222;6.354;2023-02-28T00:10:03;11.82;;;4.10;;
38113;SDS011;23926;53.222;6.354;2023-02-28T00:12:31;17.35;;;4.22;;
38113;SDS011;23926;53.222;6.354;2023-02-28T00:14:57;13.00;;;4.00;;
38113;SDS011;23926;53.222;6.354;2023-02-28T00:17:22;11.65;;;4.07;;
38113;SDS011;23926;53.222;6.354;2023-02-28T00:19:48;9.77;;;3.40;;
38113;SDS011;23926;53.222;6.354;2023-02-28T00:22:15;11.25;;;3.60;;
38113;SDS011;23926;53.222;6.354;2023-02-28T00:24:42;6.53;;;3.20;;
38113;SDS011;23926;53.222;6.354;2023-02-28T00:27:07;7.15;;;2.70;;
38113;SDS011;23926;53.222;6.354;2023-02-28T00:29:33;8.07;;;3.10;;
38113;SDS011;23926;53.222;6.354;2023-02-28T00:31:58;8.65;;;2.60;;
38113;SDS011;23926;53.222;6.354;2023-02-28T00:34:24;8.45;;;3.42;;
38113;SDS011;23926;53.222;6.354;2023-02-28T00:36:50;11.15;;;3.45;;
38113;SDS011;23926;53.222;6.354;2023-02-28T00:39:15;13.85;;;3.55;;
38113;SDS011;23926;53.222;6.354;2023-02-28T00:41:41;7.90;;;3.78;;
38113;SDS011;23926;53.222;6.354;2023-02-28T00:44:06;8.38;;;3.13;;
38113;SDS011;23926;53.222;6.354;2023-02-28T00:46:32;11.35;;;3.85;;
38113;SDS011;23926;53.222;6.354;2023-02-28T00:48:57;13.20;;;3.65;;
38113;SDS011;23926;53.222;6.354;2023-02-28T00:51:23;10.02;;;3.45;;
38113;SDS011;23926;53.222;6.354;2023-02-28T00:53:49;12.65;;;3.70;;
38113;SDS011;23926;53.222;6.354;2023-02-28T00:56:14;13.00;;;3.38;;
38113;SDS011;23926;53.222;6.354;2023-02-28T00:58:39;12.00;;;3.38;;
38113;SDS011;23926;53.222;6.354;2023-02-28T01:01:05;8.93;;;2.97;;
38113;SDS011;23926;53.222;6.354;2023-02-28T01:03:31;5.30;;;3.03;;
38113;SDS011;23926;53.222;6.354;2023-02-28T01:05:56;12.32;;;2.90;;
38113;SDS011;23926;53.222;6.354;2023-02-28T01:08:22;7.82;;;3.63;;
38113;SDS011;23926;53.222;6.354;2023-02-28T01:10:48;5.93;;;2.80;;
38113;SDS011;23926;53.222;6.354;2023-02-28T01:13:14;6.32;;;3.00;;
38113;SDS011;23926;53.222;6.354;2023-02-28T01:15:41;9.75;;;2.97;;
38113;SDS011;23926;53.222;6.354;2023-02-28T01:18:10;9.57;;;2.72;;
38113;SDS011;23926;53.222;6.354;2023-02-28T01:20:36;6.45;;;3.03;;
38113;SDS011;23926;53.222;6.354;2023-02-28T01:23:02;8.05;;;2.90;;
38113;SDS011;23926;53.222;6.354;2023-02-28T01:25:28;5.88;;;2.70;;
38113;SDS011;23926;53.222;6.354;2023-02-28T01:27:53;6.95;;;2.65;;
38113;SDS011;23926;53.222;6.354;2023-02-28T01:30:19;9.05;;;3.05;;
38113;SDS011;23926;53.222;6.354;2023-02-28T01:32:53;4.88;;;2.28;;
38113;SDS011;23926;53.222;6.354;2023-02-28T01:35:19;6.97;;;2.80;;
38113;SDS011;23926;53.222;6.354;2023-02-28T01:37:45;7.35;;;2.78;;
38113;SDS011;23926;53.222;6.354;2023-02-28T01:40:11;3.53;;;2.70;;
38113;SDS011;23926;53.222;6.354;2023-02-28T01:42:37;12.38;;;2.97;;
38113;SDS011;23926;53.222;6.354;2023-02-28T01:45:04;6.45;;;3.53;;
38113;SDS011;23926;53.222;6.354;2023-02-28T01:47:32;6.30;;;2.70;;
38113;SDS011;23926;53.222;6.354;2023-02-28T01:50:06;10.25;;;3.15;;
38113;SDS011;23926;53.222;6.354;2023-02-28T01:52:34;7.97;;;3.22;;
38113;SDS011;23926;53.222;6.354;2023-02-28T01:55:01;11.52;;;2.90;;
38113;SDS011;23926;53.222;6.354;2023-02-28T01:57:30;5.47;;;2.88;;
38113;SDS011;23926;53.222;6.354;2023-02-28T02:00:09;10.02;;;3.88;;
38113;SDS011;23926;53.222;6.354;2023-02-28T02:02:39;8.55;;;3.25;;
38113;SDS011;23926;53.222;6.354;2023-02-28T02:05:18;8.60;;;3.28;;
38113;SDS011;23926;53.222;6.354;2023-02-28T02:07:48;6.32;;;2.72;;
38113;SDS011;23926;53.222;6.354;2023-02-28T02:10:17;7.68;;;2.92;;
38113;SDS011;23926;53.222;6.354;2023-02-28T02:12:59;6.85;;;2.88;;
38113;SDS011;23926;53.222;6.354;2023-02-28T02:35:13;14.50;;;3.15;;
38113;SDS011;23926;53.222;6.354;2023-02-28T02:37:44;7.15;;;2.50;;
38113;SDS011;23926;53.222;6.354;2023-02-28T02:45:33;7.83;;;3.20;;
38113;SDS011;23926;53.222;6.354;2023-02-28T02:48:01;10.32;;;3.67;;
38113;SDS011;23926;53.222;6.354;2023-02-28T02:50:33;11.98;;;3.47;;
38113;SDS011;23926;53.222;6.354;2023-02-28T02:53:02;9.90;;;3.72;;
38113;SDS011;23926;53.222;6.354;2023-02-28T02:55:31;9.23;;;2.85;;
38113;SDS011;23926;53.222;6.354;2023-02-28T02:58:02;8.52;;;3.22;;
38113;SDS011;23926;53.222;6.354;2023-02-28T03:00:30;12.65;;;3.63;;
38113;SDS011;23926;53.222;6.354;2023-02-28T03:03:01;9.48;;;4.13;;
38113;SDS011;23926;53.222;6.354;2023-02-28T03:05:30;13.20;;;3.40;;
38113;SDS011;23926;53.222;6.354;2023-02-28T03:08:03;6.40;;;2.92;;
38113;SDS011;23926;53.222;6.354;2023-02-28T03:16:11;9.02;;;3.83;;
38113;SDS011;23926;53.222;6.354;2023-02-28T03:19:06;7.20;;;2.78;;
38113;SDS011;23926;53.222;6.354;2023-02-28T03:26:57;7.00;;;3.28;;
38113;SDS011;23926;53.222;6.354;2023-02-28T03:29:35;7.38;;;2.75;;
38113;SDS011;23926;53.222;6.354;2023-02-28T03:32:11;9.38;;;2.97;;
38113;SDS011;23926;53.222;6.354;2023-02-28T03:34:48;7.53;;;2.85;;
38113;SDS011;23926;53.222;6.354;2023-02-28T03:37:22;7.85;;;3.40;;
38113;SDS011;23926;53.222;6.354;2023-02-28T03:42:51;9.88;;;3.63;;
38113;SDS011;23926;53.222;6.354;2023-02-28T03:45:23;9.07;;;3.50;;
38113;SDS011;23926;53.222;6.354;2023-02-28T03:48:02;6.97;;;2.80;;
38113;SDS011;23926;53.222;6.354;2023-02-28T03:50:36;7.68;;;3.85;;
38113;SDS011;23926;53.222;6.354;2023-02-28T03:53:06;7.75;;;3.80;;
38113;SDS011;23926;53.222;6.354;2023-02-28T03:55:34;6.05;;;2.80;;
38113;SDS011;23926;53.222;6.354;2023-02-28T04:01:09;6.38;;;2.60;;
38113;SDS011;23926;53.222;6.354;2023-02-28T04:03:42;5.47;;;2.83;;
38113;SDS011;23926;53.222;6.354;2023-02-28T04:06:08;7.55;;;2.85;;
38113;SDS011;23926;53.222;6.354;2023-02-28T04:08:41;4.60;;;2.55;;
38113;SDS011;23926;53.222;6.354;2023-02-28T04:11:11;2.70;;;1.92;;
38113;SDS011;23926;53.222;6.354;2023-02-28T04:13:37;3.67;;;2.35;;
38113;SDS011;23926;53.222;6.354;2023-02-28T04:16:06;3.72;;;2.60;;
38113;SDS011;23926;53.222;6.354;2023-02-28T04:18:40;6.80;;;3.17;;
38113;SDS011;23926;53.222;6.354;2023-02-28T04:21:08;6.00;;;3.25;;
38113;SDS011;23926;53.222;6.354;2023-02-28T04:23:34;5.47;;;2.40;;
38113;SDS011;23926;53.222;6.354;2023-02-28T04:25:59;4.22;;;2.10;;
38113;SDS011;23926;53.222;6.354;2023-02-28T04:28:25;9.13;;;3.58;;
38113;SDS011;23926;53.222;6.354;2023-02-28T04:31:08;7.53;;;3.50;;
38113;SDS011;23926;53.222;6.354;2023-02-28T04:33:34;3.30;;;2.70;;
38113;SDS011;23926;53.222;6.354;2023-02-28T04:38:33;3.58;;;2.47;;
38113;SDS011;23926;53.222;6.354;2023-02-28T04:41:00;4.80;;;2.30;;
38113;SDS011;23926;53.222;6.354;2023-02-28T04:43:26;5.78;;;4.00;;
38113;SDS011;23926;53.222;6.354;2023-02-28T04:45:53;6.22;;;4.20;;
38113;SDS011;23926;53.222;6.354;2023-02-28T04:48:22;7.90;;;4.60;;
38113;SDS011;23926;53.222;6.354;2023-02-28T04:50:48;6.85;;;4.38;;
38113;SDS011;23926;53.222;6.354;2023-02-28T04:53:14;9.15;;;5.32;;
38113;SDS011;23926;53.222;6.354;2023-02-28T04:55:39;7.57;;;5.00;;
38113;SDS011;23926;53.222;6.354;2023-02-28T04:58:05;7.25;;;5.22;;
38113;SDS011;23926;53.222;6.354;2023-02-28T05:00:31;6.85;;;4.65;;
38113;SDS011;23926;53.222;6.354;2023-02-28T05:02:56;7.10;;;5.03;;
38113;SDS011;23926;53.222;6.354;2023-02-28T05:05:21;6.88;;;4.82;;
38113;SDS011;23926;53.222;6.354;2023-02-28T05:07:47;8.93;;;5.50;;
38113;SDS011;23926;53.222;6.354;2023-02-28T05:10:12;9.38;;;5.32;;
38113;SDS011;23926;53.222;6.354;2023-02-28T05:12:38;7.45;;;4.70;;
38113;SDS011;23926;53.222;6.354;2023-02-28T05:15:04;7.57;;;4.78;;
38113;SDS011;23926;53.222;6.354;2023-02-28T05:17:30;8.00;;;5.10;;
38113;SDS011;23926;53.222;6.354;2023-02-28T05:19:55;6.60;;;5.28;;
38113;SDS011;23926;53.222;6.354;2023-02-28T05:22:21;5.70;;;4.80;;
38113;SDS011;23926;53.222;6.354;2023-02-28T05:24:47;7.88;;;5.00;;
38113;SDS011;23926;53.222;6.354;2023-02-28T05:27:12;8.40;;;5.13;;
38113;SDS011;23926;53.222;6.354;2023-02-28T05:29:37;7.47;;;5.18;;
38113;SDS011;23926;53.222;6.354;2023-02-28T05:32:10;7.35;;;4.75;;
38113;SDS011;23926;53.222;6.354;2023-02-28T05:34:37;10.25;;;4.90;;
38113;SDS011;23926;53.222;6.354;2023-02-28T05:37:03;8.45;;;5.53;;
38113;SDS011;23926;53.222;6.354;2023-02-28T05:39:29;9.88;;;5.25;;
38113;SDS011;23926;53.222;6.354;2023-02-28T05:41:54;8.27;;;5.65;;
38113;SDS011;23926;53.222;6.354;2023-02-28T05:44:20;6.47;;;4.95;;
38113;SDS011;23926;53.222;6.354;2023-02-28T05:46:45;7.85;;;5.53;;
38113;SDS011;23926;53.222;6.354;2023-02-28T05:49:11;7.82;;;5.70;;
38113;SDS011;23926;53.222;6.354;2023-02-28T05:51:36;8.15;;;6.00;;
38113;SDS011;23926;53.222;6.354;2023-02-28T05:54:04;7.88;;;5.30;;
38113;SDS011;23926;53.222;6.354;2023-02-28T05:56:30;6.95;;;5.53;;
38113;SDS011;23926;53.222;6.354;2023-02-28T05:58:56;9.63;;;6.47;;
38113;SDS011;23926;53.222;6.354;2023-02-28T06:01:24;9.52;;;6.47;;
38113;SDS011;23926;53.222;6.354;2023-02-28T06:04:00;8.77;;;6.60;;
38113;SDS011;23926;53.222;6.354;2023-02-28T06:06:27;7.72;;;6.03;;
38113;SDS011;23926;53.222;6.354;2023-02-28T06:08:54;10.15;;;7.47;;
38113;SDS011;23926;53.222;6.354;2023-02-28T06:11:20;10.30;;;7.75;;
38113;SDS011;23926;53.222;6.354;2023-02-28T06:13:46;8.98;;;6.97;;
38113;SDS011;23926;53.222;6.354;2023-02-28T06:16:12;8.73;;;6.22;;
38113;SDS011;23926;53.222;6.354;2023-02-28T06:18:38;9.90;;;7.10;;
38113;SDS011;23926;53.222;6.354;2023-02-28T06:21:04;10.18;;;6.35;;
38113;SDS011;23926;53.222;6.354;2023-02-28T06:23:29;10.48;;;7.18;;
38113;SDS011;23926;53.222;6.354;2023-02-28T06:25:55;9.10;;;7.20;;
38113;SDS011;23926;53.222;6.354;2023-02-28T06:28:23;10.57;;;7.93;;
38113;SDS011;23926;53.222;6.354;2023-02-28T06:30:50;9.55;;;7.20;;
38113;SDS011;23926;53.222;6.354;2023-02-28T06:33:15;10.95;;;7.85;;
38113;SDS011;23926;53.222;6.354;2023-02-28T06:35:43;9.38;;;6.70;;
38113;SDS011;23926;53.222;6.354;2023-02-28T06:38:09;8.75;;;7.07;;
38113;SDS011;23926;53.222;6.354;2023-02-28T06:40:35;9.68;;;6.90;;
38113;SDS011;23926;53.222;6.354;2023-02-28T06:43:01;8.02;;;6.55;;
38113;SDS011;23926;53.222;6.354;2023-02-28T06:45:27;10.38;;;7.88;;
38113;SDS011;23926;53.222;6.354;2023-02-28T06:47:52;9.82;;;6.57;;
38113;SDS011;23926;53.222;6.354;2023-02-28T06:50:17;9.15;;;7.10;;
38113;SDS011;23926;53.222;6.354;2023-02-28T06:52:44;10.18;;;7.57;;
38113;SDS011;23926;53.222;6.354;2023-02-28T06:55:10;10.95;;;7.93;;
38113;SDS011;23926;53.222;6.354;2023-02-28T06:57:35;11.05;;;7.40;;
38113;SDS011;23926;53.222;6.354;2023-02-28T07:00:04;10.80;;;7.40;;
38113;SDS011;23926;53.222;6.354;2023-02-28T07:02:32;15.32;;;8.65;;
38113;SDS011;23926;53.222;6.354;2023-02-28T07:04:58;9.98;;;7.85;;
38113;SDS011;23926;53.222;6.354;2023-02-28T07:07:23;13.55;;;7.75;;
38113;SDS011;23926;53.222;6.354;2023-02-28T07:09:49;13.65;;;8.85;;
38113;SDS011;23926;53.222;6.354;2023-02-28T07:12:14;14.63;;;9.23;;
38113;SDS011;23926;53.222;6.354;2023-02-28T07:14:40;12.15;;;8.35;;
38113;SDS011;23926;53.222;6.354;2023-02-28T07:17:08;16.75;;;11.70;;
38113;SDS011;23926;53.222;6.354;2023-02-28T07:19:36;11.55;;;8.18;;
38113;SDS011;23926;53.222;6.354;2023-02-28T07:22:03;14.82;;;9.80;;
38113;SDS011;23926;53.222;6.354;2023-02-28T07:24:28;11.80;;;8.88;;
38113;SDS011;23926;53.222;6.354;2023-02-28T07:26:54;12.15;;;8.55;;
38113;SDS011;23926;53.222;6.354;2023-02-28T07:29:20;11.23;;;8.68;;
38113;SDS011;23926;53.222;6.354;2023-02-28T07:31:45;11.02;;;7.97;;
38113;SDS011;23926;53.222;6.354;2023-02-28T07:34:11;19.00;;;11.75;;
38113;SDS011;23926;53.222;6.354;2023-02-28T07:36:37;14.00;;;10.38;;
38113;SDS011;23926;53.222;6.354;2023-02-28T07:39:03;16.35;;;10.65;;
38113;SDS011;23926;53.222;6.354;2023-02-28T07:41:29;26.80;;;13.73;;
38113;SDS011;23926;53.222;6.354;2023-02-28T07:43:58;15.48;;;10.02;;
38113;SDS011;23926;53.222;6.354;2023-02-28T07:46:24;17.33;;;11.07;;
38113;SDS011;23926;53.222;6.354;2023-02-28T07:48:51;16.80;;;10.88;;
38113;SDS011;23926;53.222;6.354;2023-02-28T07:51:16;16.30;;;11.10;;
38113;SDS011;23926;53.222;6.354;2023-02-28T07:53:42;13.48;;;9.30;;
38113;SDS011;23926;53.222;6.354;2023-02-28T07:56:07;14.52;;;9.65;;
38113;SDS011;23926;53.222;6.354;2023-02-28T07:58:33;14.32;;;9.27;;
38113;SDS011;23926;53.222;6.354;2023-02-28T08:01:05;18.05;;;11.70;;
38113;SDS011;23926;53.222;6.354;2023-02-28T08:03:35;12.15;;;9.13;;
38113;SDS011;23926;53.222;6.354;2023-02-28T08:06:02;16.35;;;11.30;;
38113;SDS011;23926;53.222;6.354;2023-02-28T08:08:39;18.67;;;11.98;;
38113;SDS011;23926;53.222;6.354;2023-02-28T08:11:05;19.45;;;12.57;;
38113;SDS011;23926;53.222;6.354;2023-02-28T08:13:30;26.63;;;15.70;;
38113;SDS011;23926;53.222;6.354;2023-02-28T08:15:56;15.23;;;10.18;;
38113;SDS011;23926;53.222;6.354;2023-02-28T08:18:22;24.48;;;15.40;;
38113;SDS011;23926;53.222;6.354;2023-02-28T08:20:47;20.15;;;13.80;;
38113;SDS011;23926;53.222;6.354;2023-02-28T08:23:13;19.30;;;11.50;;
38113;SDS011;23926;53.222;6.354;2023-02-28T08:25:39;21.27;;;13.02;;
38113;SDS011;23926;53.222;6.354;2023-02-28T08:28:05;19.73;;;12.82;;
38113;SDS011;23926;53.222;6.354;2023-02-28T08:30:30;25.52;;;15.27;;
38113;SDS011;23926;53.222;6.354;2023-02-28T08:32:55;31.45;;;17.50;;
38113;SDS011;23926;53.222;6.354;2023-02-28T08:35:21;29.52;;;17.70;;
38113;SDS011;23926;53.222;6.354;2023-02-28T08:37:47;27.15;;;16.08;;
38113;SDS011;23926;53.222;6.354;2023-02-28T08:40:13;32.17;;;17.52;;
38113;SDS011;23926;53.222;6.354;2023-02-28T08:42:43;19.65;;;13.13;;
38113;SDS011;23926;53.222;6.354;2023-02-28T08:45:09;25.80;;;15.73;;
38113;SDS011;23926;53.222;6.354;2023-02-28T08:47:35;28.85;;;15.93;;
38113;SDS011;23926;53.222;6.354;2023-02-28T08:50:01;18.95;;;12.65;;
38113;SDS011;23926;53.222;6.354;2023-02-28T08:52:26;23.38;;;13.98;;
38113;SDS011;23926;53.222;6.354;2023-02-28T08:54:52;15.80;;;10.57;;
38113;SDS011;23926;53.222;6.354;2023-02-28T08:57:17;18.33;;;12.95;;
38113;SDS011;23926;53.222;6.354;2023-02-28T08:59:42;15.90;;;10.77;;
38113;SDS011;23926;53.222;6.354;2023-02-28T09:02:08;20.00;;;13.57;;
38113;SDS011;23926;53.222;6.354;2023-02-28T09:04:37;12.90;;;9.82;;
38113;SDS011;23926;53.222;6.354;2023-02-28T09:07:02;15.25;;;10.82;;
38113;SDS011;23926;53.222;6.354;2023-02-28T09:09:28;22.90;;;14.02;;
38113;SDS011;23926;53.222;6.354;2023-02-28T09:11:55;20.85;;;12.57;;
38113;SDS011;23926;53.222;6.354;2023-02-28T09:14:21;15.98;;;10.35;;
38113;SDS011;23926;53.222;6.354;2023-02-28T09:16:46;24.77;;;14.70;;
38113;SDS011;23926;53.222;6.354;2023-02-28T09:19:12;13.65;;;10.13;;
38113;SDS011;23926;53.222;6.354;2023-02-28T09:21:38;17.13;;;11.52;;
38113;SDS011;23926;53.222;6.354;2023-02-28T09:24:03;14.60;;;10.35;;
38113;SDS011;23926;53.222;6.354;2023-02-28T09:26:29;12.00;;;9.25;;
38113;SDS011;23926;53.222;6.354;2023-02-28T09:28:54;18.60;;;11.10;;
38113;SDS011;23926;53.222;6.354;2023-02-28T09:31:22;19.58;;;12.55;;
38113;SDS011;23926;53.222;6.354;2023-02-28T09:33:49;15.07;;;9.73;;
38113;SDS011;23926;53.222;6.354;2023-02-28T09:36:16;17.33;;;12.10;;
38113;SDS011;23926;53.222;6.354;2023-02-28T09:38:42;19.27;;;12.05;;
38113;SDS011;23926;53.222;6.354;2023-02-28T09:41:10;14.05;;;9.70;;
38113;SDS011;23926;53.222;6.354;2023-02-28T09:43:43;23.10;;;13.40;;
38113;SDS011;23926;53.222;6.354;2023-02-28T09:48:48;19.13;;;11.75;;
38113;SDS011;23926;53.222;6.354;2023-02-28T09:51:27;17.45;;;11.20;;
38113;SDS011;23926;53.222;6.354;2023-02-28T09:54:01;16.42;;;11.73;;
38113;SDS011;23926;53.222;6.354;2023-02-28T09:56:32;16.10;;;11.25;;
38113;SDS011;23926;53.222;6.354;2023-02-28T10:06:46;19.80;;;11.98;;
38113;SDS011;23926;53.222;6.354;2023-02-28T10:09:18;18.17;;;10.93;;
38113;SDS011;23926;53.222;6.354;2023-02-28T10:11:48;19.55;;;12.57;;
38113;SDS011;23926;53.222;6.354;2023-02-28T10:14:24;13.85;;;10.65;;
38113;SDS011;23926;53.222;6.354;2023-02-28T10:16:57;14.80;;;10.25;;
38113;SDS011;23926;53.222;6.354;2023-02-28T10:19:55;16.05;;;11.10;;
38113;SDS011;23926;53.222;6.354;2023-02-28T10:22:26;13.45;;;9.55;;
38113;SDS011;23926;53.222;6.354;2023-02-28T10:24:57;14.10;;;9.32;;
38113;SDS011;23926;53.222;6.354;2023-02-28T10:27:31;13.75;;;9.45;;
38113;SDS011;23926;53.222;6.354;2023-02-28T10:29:58;15.40;;;10.10;;
38113;SDS011;23926;53.222;6.354;2023-02-28T10:32:35;17.05;;;11.85;;
38113;SDS011;23926;53.222;6.354;2023-02-28T10:37:43;15.23;;;10.00;;
38113;SDS011;23926;53.222;6.354;2023-02-28T10:45:29;17.00;;;11.40;;
38113;SDS011;23926;53.222;6.354;2023-02-28T10:48:23;13.80;;;9.20;;
38113;SDS011;23926;53.222;6.354;2023-02-28T10:50:59;13.00;;;9.68;;
38113;SDS011;23926;53.222;6.354;2023-02-28T10:53:39;13.93;;;9.30;;
38113;SDS011;23926;53.222;6.354;2023-02-28T10:56:19;13.13;;;8.77;;
38113;SDS011;23926;53.222;6.354;2023-02-28T10:58:54;13.85;;;8.88;;
38113;SDS011;23926;53.222;6.354;2023-02-28T11:01:41;13.40;;;9.13;;
38113;SDS011;23926;53.222;6.354;2023-02-28T11:07:39;14.75;;;8.20;;
38113;SDS011;23926;53.222;6.354;2023-02-28T11:09:52;13.35;;;8.05;;
38113;SDS011;23926;53.222;6.354;2023-02-28T11:12:31;13.80;;;7.70;;
38113;SDS011;23926;53.222;6.354;2023-02-28T11:15:07;11.75;;;8.52;;
38113;SDS011;23926;53.222;6.354;2023-02-28T11:18:22;9.98;;;7.50;;
38113;SDS011;23926;53.222;6.354;2023-02-28T11:20:49;11.38;;;7.43;;
38113;SDS011;23926;53.222;6.354;2023-02-28T11:23:16;10.52;;;8.02;;
38113;SDS011;23926;53.222;6.354;2023-02-28T11:25:49;12.02;;;7.57;;
38113;SDS011;23926;53.222;6.354;2023-02-28T11:31:03;10.68;;;7.25;;
38113;SDS011;23926;53.222;6.354;2023-02-28T11:33:45;9.43;;;7.30;;
38113;SDS011;23926;53.222;6.354;2023-02-28T11:38:36;12.30;;;7.13;;
38113;SDS011;23926;53.222;6.354;2023-02-28T11:46:33;13.57;;;7.15;;
38113;SDS011;23926;53.222;6.354;2023-02-28T11:49:11;11.70;;;6.50;;
38113;SDS011;23926;53.222;6.354;2023-02-28T11:51:50;8.52;;;5.55;;
38113;SDS011;23926;53.222;6.354;2023-02-28T11:57:00;9.52;;;5.97;;
38113;SDS011;23926;53.222;6.354;2023-02-28T12:02:56;10.57;;;6.05;;
38113;SDS011;23926;53.222;6.354;2023-02-28T12:06:16;8.63;;;6.28;;
38113;SDS011;23926;53.222;6.354;2023-02-28T12:14:50;10.25;;;6.70;;
38113;SDS011;23926;53.222;6.354;2023-02-28T12:22:54;11.07;;;5.75;;
38113;SDS011;23926;53.222;6.354;2023-02-28T12:27:58;9.23;;;5.93;;
38113;SDS011;23926;53.222;6.354;2023-02-28T12:30:32;11.60;;;5.78;;
38113;SDS011;23926;53.222;6.354;2023-02-28T12:35:37;6.72;;;4.63;;
38113;SDS011;23926;53.222;6.354;2023-02-28T12:40:56;9.15;;;5.43;;
38113;SDS011;23926;53.222;6.354;2023-02-28T12:43:32;7.47;;;5.80;;
38113;SDS011;23926;53.222;6.354;2023-02-28T12:47:03;8.35;;;5.07;;
38113;SDS011;23926;53.222;6.354;2023-02-28T12:52:28;8.85;;;5.07;;
38113;SDS011;23926;53.222;6.354;2023-02-28T12:55:12;9.50;;;5.47;;
38113;SDS011;23926;53.222;6.354;2023-02-28T12:57:47;7.82;;;5.13;;
38113;SDS011;23926;53.222;6.354;2023-02-28T13:00:22;8.00;;;5.43;;
38113;SDS011;23926;53.222;6.354;2023-02-28T13:10:52;8.52;;;5.40;;
38113;SDS011;23926;53.222;6.354;2023-02-28T13:13:22;7.50;;;5.78;;
38113;SDS011;23926;53.222;6.354;2023-02-28T13:18:33;8.50;;;5.72;;
38113;SDS011;23926;53.222;6.354;2023-02-28T13:21:27;7.03;;;5.00;;
38113;SDS011;23926;53.222;6.354;2023-02-28T13:24:39;9.60;;;5.63;;
38113;SDS011;23926;53.222;6.354;2023-02-28T13:27:41;9.45;;;5.72;;
38113;SDS011;23926;53.222;6.354;2023-02-28T13:34:04;9.20;;;5.95;;
38113;SDS011;23926;53.222;6.354;2023-02-28T13:43:25;8.52;;;6.20;;
38113;SDS011;23926;53.222;6.354;2023-02-28T13:53:34;8.52;;;5.68;;
38113;SDS011;23926;53.222;6.354;2023-02-28T14:05:13;9.73;;;7.38;;
38113;SDS011;23926;53.222;6.354;2023-02-28T14:07:50;7.45;;;5.47;;
38113;SDS011;23926;53.222;6.354;2023-02-28T14:10:36;8.50;;;6.40;;
38113;SDS011;23926;53.222;6.354;2023-02-28T14:13:12;10.10;;;7.25;;
38113;SDS011;23926;53.222;6.354;2023-02-28T14:15:59;11.65;;;6.93;;
38113;SDS011;23926;53.222;6.354;2023-02-28T14:18:32;10.27;;;5.55;;
38113;SDS011;23926;53.222;6.354;2023-02-28T14:21:10;12.65;;;6.90;;
38113;SDS011;23926;53.222;6.354;2023-02-28T14:23:46;9.52;;;6.60;;
38113;SDS011;23926;53.222;6.354;2023-02-28T14:38:32;12.85;;;7.25;;
38113;SDS011;23926;53.222;6.354;2023-02-28T14:41:06;12.50;;;7.78;;
38113;SDS011;23926;53.222;6.354;2023-02-28T14:46:51;14.60;;;8.68;;
38113;SDS011;23926;53.222;6.354;2023-02-28T14:49:28;9.90;;;7.15;;
38113;SDS011;23926;53.222;6.354;2023-02-28T14:52:27;9.50;;;6.97;;
38113;SDS011;23926;53.222;6.354;2023-02-28T14:55:06;14.20;;;9.27;;
38113;SDS011;23926;53.222;6.354;2023-02-28T14:57:52;13.05;;;8.05;;
38113;SDS011;23926;53.222;6.354;2023-02-28T15:03:37;13.95;;;7.05;;
38113;SDS011;23926;53.222;6.354;2023-02-28T15:06:26;13.32;;;7.57;;
38113;SDS011;23926;53.222;6.354;2023-02-28T15:09:16;10.77;;;7.93;;
38113;SDS011;23926;53.222;6.354;2023-02-28T15:12:04;13.75;;;8.75;;
38113;SDS011;23926;53.222;6.354;2023-02-28T15:15:01;11.85;;;8.43;;
38113;SDS011;23926;53.222;6.354;2023-02-28T15:17:54;11.60;;;9.20;;
38113;SDS011;23926;53.222;6.354;2023-02-28T15:20:24;11.57;;;8.05;;
38113;SDS011;23926;53.222;6.354;2023-02-28T15:22:52;14.50;;;8.95;;
38113;SDS011;23926;53.222;6.354;2023-02-28T15:25:21;13.43;;;7.93;;
38113;SDS011;23926;53.222;6.354;2023-02-28T15:27:53;12.93;;;7.50;;
38113;SDS011;23926;53.222;6.354;2023-02-28T15:30:23;17.35;;;8.82;;
38113;SDS011;23926;53.222;6.354;2023-02-28T15:35:49;13.82;;;8.95;;
38113;SDS011;23926;53.222;6.354;2023-02-28T15:38:22;18.73;;;10.02;;
38113;SDS011;23926;53.222;6.354;2023-02-28T15:40:53;11.75;;;7.93;;
38113;SDS011;23926;53.222;6.354;2023-02-28T15:43:36;13.63;;;8.43;;
38113;SDS011;23926;53.222;6.354;2023-02-28T15:46:09;12.85;;;8.15;;
38113;SDS011;23926;53.222;6.354;2023-02-28T15:48:50;15.68;;;8.60;;
38113;SDS011;23926;53.222;6.354;2023-02-28T15:51:18;11.63;;;7.68;;
38113;SDS011;23926;53.222;6.354;2023-02-28T15:53:50;11.25;;;8.48;;
38113;SDS011;23926;53.222;6.354;2023-02-28T15:56:28;15.30;;;9.43;;
38113;SDS011;23926;53.222;6.354;2023-02-28T15:58:57;14.85;;;10.45;;
38113;SDS011;23926;53.222;6.354;2023-02-28T16:01:37;14.57;;;10.05;;
38113;SDS011;23926;53.222;6.354;2023-02-28T16:04:18;16.83;;;10.90;;
38113;SDS011;23926;53.222;6.354;2023-02-28T16:09:34;17.63;;;10.23;;
38113;SDS011;23926;53.222;6.354;2023-02-28T16:12:09;12.82;;;9.30;;
38113;SDS011;23926;53.222;6.354;2023-02-28T16:14:38;16.98;;;10.20;;
38113;SDS011;23926;53.222;6.354;2023-02-28T16:20:15;13.27;;;10.02;;
38113;SDS011;23926;53.222;6.354;2023-02-28T16:22:51;18.83;;;11.13;;
38113;SDS011;23926;53.222;6.354;2023-02-28T16:25:21;15.27;;;9.73;;
38113;SDS011;23926;53.222;6.354;2023-02-28T16:27:58;13.55;;;9.63;;
38113;SDS011;23926;53.222;6.354;2023-02-28T16:30:36;13.73;;;9.10;;
38113;SDS011;23926;53.222;6.354;2023-02-28T16:33:23;15.63;;;9.82;;
38113;SDS011;23926;53.222;6.354;2023-02-28T16:35:52;20.48;;;11.73;;
38113;SDS011;23926;53.222;6.354;2023-02-28T16:38:50;16.75;;;9.73;;
38113;SDS011;23926;53.222;6.354;2023-02-28T16:41:36;13.35;;;9.85;;
38113;SDS011;23926;53.222;6.354;2023-02-28T16:44:29;14.57;;;10.07;;
38113;SDS011;23926;53.222;6.354;2023-02-28T16:47:08;15.93;;;11.13;;
38113;SDS011;23926;53.222;6.354;2023-02-28T16:49:49;18.17;;;10.90;;
38113;SDS011;23926;53.222;6.354;2023-02-28T16:52:27;14.68;;;10.55;;
38113;SDS011;23926;53.222;6.354;2023-02-28T16:55:05;16.83;;;10.88;;
38113;SDS011;23926;53.222;6.354;2023-02-28T16:57:41;15.57;;;10.82;;
38113;SDS011;23926;53.222;6.354;2023-02-28T17:00:32;14.68;;;10.07;;
38113;SDS011;23926;53.222;6.354;2023-02-28T17:03:19;20.90;;;10.32;;
38113;SDS011;23926;53.222;6.354;2023-02-28T17:06:16;20.25;;;11.43;;
38113;SDS011;23926;53.222;6.354;2023-02-28T17:08:56;15.35;;;10.80;;
38113;SDS011;23926;53.222;6.354;2023-02-28T17:11:46;18.67;;;12.88;;
38113;SDS011;23926;53.222;6.354;2023-02-28T17:14:54;15.80;;;10.52;;
38113;SDS011;23926;53.222;6.354;2023-02-28T17:17:48;21.00;;;13.63;;
38113;SDS011;23926;53.222;6.354;2023-02-28T17:20:37;26.85;;;12.68;;
38113;SDS011;23926;53.222;6.354;2023-02-28T17:23:24;21.52;;;13.55;;
38113;SDS011;23926;53.222;6.354;2023-02-28T17:26:23;23.83;;;16.00;;
38113;SDS011;23926;53.222;6.354;2023-02-28T17:29:06;20.85;;;14.23;;
38113;SDS011;23926;53.222;6.354;2023-02-28T17:31:44;22.90;;;13.20;;
38113;SDS011;23926;53.222;6.354;2023-02-28T17:34:21;21.50;;;14.48;;
38113;SDS011;23926;53.222;6.354;2023-02-28T17:37:03;22.38;;;13.82;;
38113;SDS011;23926;53.222;6.354;2023-02-28T17:39:44;23.95;;;15.95;;
38113;SDS011;23926;53.222;6.354;2023-02-28T17:42:29;23.98;;;15.93;;
38113;SDS011;23926;53.222;6.354;2023-02-28T17:45:04;23.85;;;15.48;;
38113;SDS011;23926;53.222;6.354;2023-02-28T17:47:51;24.52;;;16.10;;
38113;SDS011;23926;53.222;6.354;2023-02-28T17:50:46;26.42;;;15.65;;
38113;SDS011;23926;53.222;6.354;2023-02-28T17:53:36;27.45;;;15.68;;